createdAt,value
2018-02-21T00:02:02.569Z,68.35
2018-02-21T00:04:28.836Z,69.82
2018-02-21T00:06:55.238Z,71.57
2018-02-21T00:09:21.610Z,72.87
2018-02-21T00:11:47.805Z,67.90
2018-02-21T00:14:14.120Z,65.20
2018-02-21T00:16:40.374Z,77.10
2018-02-21T00:19:06.909Z,58.97
2018-02-21T00:21:33.504Z,69.40
2018-02-21T00:24:00.082Z,66.28
2018-02-21T00:26:26.398Z,67.90
2018-02-21T00:28:52.927Z,66.37
2018-02-21T00:31:20.867Z,62.53
2018-02-21T00:33:47.198Z,65.53
2018-02-21T00:36:13.478Z,69.85
2018-02-21T00:38:39.761Z,68.15
2018-02-21T00:41:06.818Z,67.57
2018-02-21T00:43:33.943Z,70.90
2018-02-21T00:46:00.458Z,70.50
2018-02-21T00:48:27.157Z,70.05
2018-02-21T00:50:54.149Z,73.97
2018-02-21T00:53:20.568Z,66.43
2018-02-21T00:55:46.853Z,76.70
2018-02-21T00:58:13.412Z,71.55
2018-02-21T01:00:39.727Z,68.30
2018-02-21T01:03:06.204Z,74.22
2018-02-21T01:05:32.991Z,69.53
2018-02-21T01:08:00.561Z,65.35
2018-02-21T01:10:26.912Z,65.57
2018-02-21T01:12:53.190Z,67.03
2018-02-21T01:15:19.447Z,68.68
2018-02-21T01:17:45.742Z,66.07
2018-02-21T01:20:12.774Z,75.20
2018-02-21T01:22:39.182Z,73.20
2018-02-21T01:25:05.956Z,71.95
2018-02-21T01:27:33.145Z,66.53
2018-02-21T01:30:00.638Z,66.15
2018-02-21T01:32:27.120Z,71.18
2018-02-21T01:34:53.338Z,74.22
2018-02-21T01:37:19.743Z,73.20
2018-02-21T01:39:46.058Z,70.85
2018-02-21T01:42:12.555Z,64.40
2018-02-21T01:44:38.835Z,64.22
2018-02-21T01:47:05.232Z,84.62
2018-02-21T01:49:31.754Z,69.32
2018-02-21T01:51:58.206Z,73.97
2018-02-21T01:54:24.447Z,70.07
2018-02-21T01:56:51.487Z,73.75
2018-02-21T01:59:17.804Z,67.75
2018-02-21T02:01:44.098Z,66.62
2018-02-21T02:04:11.196Z,69.72
2018-02-21T02:06:37.462Z,72.82
2018-02-21T02:09:04.984Z,72.43
2018-02-21T02:11:31.624Z,67.78
2018-02-21T02:13:58.771Z,69.07
2018-02-21T02:16:25.917Z,74.18
2018-02-21T02:18:52.512Z,68.95
2018-02-21T02:21:18.988Z,70.90
2018-02-21T02:23:45.289Z,71.72
2018-02-21T02:26:11.617Z,76.62
2018-02-21T02:28:38.669Z,74.97
2018-02-21T02:31:05.911Z,65.00
2018-02-21T02:33:32.700Z,67.18
2018-02-21T02:35:59.411Z,72.50
2018-02-21T02:38:38.013Z,80.45
2018-02-21T02:41:04.509Z,74.62
2018-02-21T02:43:31.112Z,74.28
2018-02-21T02:45:57.513Z,75.72
2018-02-21T02:48:23.832Z,78.12
2018-02-21T02:50:50.225Z,78.95
2018-02-21T02:53:16.601Z,78.30
2018-02-21T02:55:42.917Z,72.72
2018-02-21T02:58:09.223Z,76.72
2018-02-21T03:00:36.449Z,90.70
2018-02-21T03:03:03.175Z,85.10
2018-02-21T03:05:29.731Z,76.87
2018-02-21T03:07:56.922Z,86.75
2018-02-21T03:10:23.408Z,84.70
2018-02-21T03:12:49.699Z,90.15
2018-02-21T03:15:16.031Z,76.95
2018-02-21T03:17:42.362Z,77.97
2018-02-21T03:20:08.650Z,93.75
2018-02-21T03:22:35.367Z,90.57
2018-02-21T03:25:01.996Z,88.32
2018-02-21T03:27:28.363Z,92.35
2018-02-21T03:29:54.762Z,90.28
2018-02-21T03:32:21.326Z,91.18
2018-02-21T03:34:47.744Z,90.97
2018-02-21T03:37:14.876Z,78.72
2018-02-21T03:39:41.215Z,92.07
2018-02-21T03:42:07.597Z,90.05
2018-02-21T03:44:34.021Z,93.25
2018-02-21T03:47:00.844Z,83.43
2018-02-21T03:49:27.311Z,87.43
2018-02-21T03:51:53.749Z,93.90
2018-02-21T03:54:20.126Z,91.40
2018-02-21T03:56:47.143Z,84.50
2018-02-21T03:59:13.434Z,89.45
2018-02-21T04:01:39.727Z,91.07
2018-02-21T04:04:06.727Z,93.75
2018-02-21T04:06:33.237Z,93.85
2018-02-21T04:08:59.792Z,83.20
2018-02-21T04:11:26.893Z,93.80
2018-02-21T04:13:53.295Z,89.82
2018-02-21T04:16:19.736Z,90.80
2018-02-21T04:18:46.923Z,86.28
2018-02-21T04:21:13.263Z,96.18
2018-02-21T04:23:40.080Z,99.95
2018-02-21T04:26:06.638Z,93.45
2018-02-21T04:28:33.188Z,99.53
2018-02-21T04:30:59.637Z,104.80
2018-02-21T04:33:25.991Z,91.40
2018-02-21T04:35:53.290Z,99.65
2018-02-21T04:38:19.582Z,111.55
2018-02-21T04:40:45.955Z,99.60
2018-02-21T04:43:12.967Z,105.53
2018-02-21T04:45:39.244Z,101.32
2018-02-21T04:48:05.845Z,96.63
2018-02-21T04:50:32.250Z,99.45
2018-02-21T04:52:58.657Z,109.60
2018-02-21T04:58:32.936Z,97.65
2018-02-21T05:00:59.736Z,105.90
2018-02-21T05:03:26.041Z,101.40
2018-02-21T05:05:52.482Z,98.78
2018-02-21T05:08:18.784Z,97.55
2018-02-21T05:10:45.790Z,106.82
2018-02-21T05:13:12.780Z,111.68
2018-02-21T05:15:39.106Z,107.12
2018-02-21T05:18:06.411Z,109.47
2018-02-21T05:20:33.624Z,111.40
2018-02-21T05:23:00.180Z,111.15
2018-02-21T05:25:26.537Z,104.35
2018-02-21T05:27:52.941Z,106.05
2018-02-21T05:30:19.411Z,114.70
2018-02-21T05:32:45.754Z,107.35
2018-02-21T05:35:12.056Z,101.07
2018-02-21T05:37:38.320Z,96.63
2018-02-21T05:40:04.819Z,101.95
2018-02-21T05:42:31.317Z,100.32
2018-02-21T05:44:57.646Z,97.65
2018-02-21T05:47:23.967Z,109.95
2018-02-21T05:49:50.418Z,111.62
2018-02-21T05:52:17.502Z,104.22
2018-02-21T05:54:43.781Z,103.78
2018-02-21T05:57:10.027Z,108.28
2018-02-21T05:59:36.325Z,109.95
2018-02-21T06:02:03.472Z,111.30
2018-02-21T06:04:30.269Z,105.15
2018-02-21T06:06:56.582Z,111.75
2018-02-21T06:09:23.629Z,101.62
2018-02-21T06:11:50.042Z,119.97
2018-02-21T06:14:17.133Z,118.55
2018-02-21T06:16:44.164Z,95.93
2018-02-21T06:19:10.498Z,102.18
2018-02-21T06:21:37.772Z,103.47
2018-02-21T06:24:04.185Z,109.90
2018-02-21T06:26:31.435Z,112.53
2018-02-21T06:28:57.767Z,107.65
2018-02-21T06:31:26.166Z,102.40
2018-02-21T06:33:52.535Z,109.47
2018-02-21T06:36:19.613Z,111.90
2018-02-21T06:38:45.910Z,106.93
2018-02-21T06:41:12.938Z,116.20
2018-02-21T06:43:40.147Z,113.65
2018-02-21T06:46:06.604Z,117.53
2018-02-21T06:48:33.366Z,106.68
2018-02-21T06:50:59.831Z,107.65
2018-02-21T06:53:26.770Z,120.43
2018-02-21T06:55:53.329Z,129.12
2018-02-21T06:58:19.631Z,98.87
2018-02-21T07:00:45.964Z,108.43
2018-02-21T07:03:12.787Z,101.18
2018-02-21T07:05:39.837Z,118.35
2018-02-21T07:08:06.190Z,110.00
2018-02-21T07:10:32.760Z,102.68
2018-02-21T07:12:59.318Z,115.15
2018-02-21T07:15:25.714Z,106.37
2018-02-21T07:17:52.011Z,98.60
2018-02-21T07:20:18.372Z,93.65
2018-02-21T07:22:44.719Z,111.62
2018-02-21T07:25:11.080Z,104.50
2018-02-21T07:27:37.550Z,103.53
2018-02-21T07:30:04.027Z,100.07
2018-02-21T07:32:31.329Z,101.93
2018-02-21T07:34:57.606Z,95.85
2018-02-21T07:37:24.175Z,99.28
2018-02-21T07:39:51.391Z,97.78
2018-02-21T07:42:18.476Z,101.50
2018-02-21T07:44:45.543Z,98.15
2018-02-21T07:47:12.574Z,94.37
2018-02-21T07:49:38.911Z,99.00
2018-02-21T07:52:05.286Z,102.20
2018-02-21T07:54:31.938Z,93.55
2018-02-21T07:56:58.326Z,95.62
2018-02-21T07:59:24.752Z,101.93
2018-02-21T08:01:51.256Z,102.57
2018-02-21T08:04:17.650Z,97.18
2018-02-21T08:06:44.029Z,95.50
2018-02-21T08:09:11.058Z,95.90
2018-02-21T08:11:40.709Z,82.95
2018-02-21T08:14:07.107Z,94.62
2018-02-21T08:16:33.886Z,96.50
2018-02-21T08:19:00.335Z,103.18
2018-02-21T08:21:27.398Z,93.10
2018-02-21T08:23:55.498Z,97.12
2018-02-21T08:26:21.926Z,100.55
2018-02-21T08:28:48.335Z,99.00
2018-02-21T08:31:14.659Z,93.55
2018-02-21T08:33:41.745Z,96.18
2018-02-21T08:36:08.027Z,86.90
2018-02-21T08:38:34.417Z,87.70
2018-02-21T08:41:00.953Z,83.10
2018-02-21T08:43:27.279Z,85.62
2018-02-21T08:45:53.703Z,78.37
2018-02-21T08:48:20.021Z,72.32
2018-02-21T08:50:46.346Z,77.05
2018-02-21T08:53:12.673Z,80.32
2018-02-21T08:55:38.978Z,84.65
2018-02-21T08:58:05.498Z,84.15
2018-02-21T09:00:31.880Z,75.20
2018-02-21T09:02:58.715Z,89.78
2018-02-21T09:05:25.070Z,81.60
2018-02-21T09:07:51.379Z,80.93
2018-02-21T09:10:17.771Z,76.93
2018-02-21T09:12:44.854Z,82.55
2018-02-21T09:15:11.155Z,80.87
2018-02-21T09:17:37.438Z,79.75
2018-02-21T09:20:04.588Z,81.72
2018-02-21T09:22:33.987Z,74.45
2018-02-21T09:25:01.342Z,78.37
2018-02-21T09:27:27.666Z,70.43
2018-02-21T09:29:54.000Z,68.85
2018-02-21T09:32:20.260Z,76.30
2018-02-21T09:34:49.513Z,78.50
2018-02-21T09:37:21.917Z,81.82
2018-02-21T09:39:48.301Z,72.10
2018-02-21T09:42:14.576Z,72.20
2018-02-21T09:44:41.544Z,74.50
2018-02-21T09:47:07.819Z,78.32
2018-02-21T09:49:34.346Z,77.30
2018-02-21T09:52:08.742Z,67.50
2018-02-21T09:54:35.202Z,75.12
2018-02-21T09:57:02.524Z,71.60
2018-02-21T09:59:28.986Z,67.20
2018-02-21T10:01:55.411Z,68.15
2018-02-21T10:04:22.314Z,64.12
2018-02-21T10:06:49.540Z,70.75
2018-02-21T10:09:16.558Z,68.53
2018-02-21T10:11:42.850Z,64.65
2018-02-21T10:14:09.408Z,61.97
2018-02-21T10:16:37.058Z,66.85
2018-02-21T10:19:04.675Z,66.85
2018-02-21T10:21:32.499Z,67.68
2018-02-21T10:24:00.732Z,62.35
2018-02-21T10:26:27.245Z,59.90
2018-02-21T10:28:53.638Z,63.35
2018-02-21T10:31:19.964Z,57.22
2018-02-21T10:33:46.230Z,62.22
2018-02-21T10:36:12.529Z,52.75
2018-02-21T10:38:39.533Z,60.12
2018-02-21T10:41:06.023Z,61.20
2018-02-21T10:43:33.474Z,58.78
2018-02-21T10:46:00.208Z,59.22
2018-02-21T10:48:26.984Z,50.97
2018-02-21T10:50:54.032Z,53.53
2018-02-21T10:53:20.379Z,47.33
2018-02-21T10:55:46.722Z,52.62
2018-02-21T10:58:14.925Z,49.00
2018-02-21T11:00:47.360Z,50.00
2018-02-21T11:03:13.713Z,43.58
2018-02-21T11:05:40.372Z,50.55
2018-02-21T11:08:07.001Z,50.30
2018-02-21T11:10:33.423Z,50.30
2018-02-21T11:12:59.977Z,48.28
2018-02-21T11:15:26.404Z,45.55
2018-02-21T11:17:52.841Z,48.63
2018-02-21T11:20:19.435Z,37.65
2018-02-21T11:22:45.958Z,48.25
2018-02-21T11:25:12.574Z,45.20
2018-02-21T11:27:39.400Z,51.75
2018-02-21T11:30:05.935Z,43.30
2018-02-21T11:32:32.518Z,40.55
2018-02-21T11:34:59.511Z,39.25
2018-02-21T11:37:25.869Z,40.42
2018-02-21T11:39:52.476Z,43.35
2018-02-21T11:42:19.624Z,43.45
2018-02-21T11:44:45.946Z,42.85
2018-02-21T11:47:12.982Z,41.10
2018-02-21T11:49:39.355Z,41.30
2018-02-21T11:52:05.827Z,46.65
2018-02-21T11:54:32.274Z,42.20
2018-02-21T11:56:58.716Z,37.47
2018-02-21T11:59:25.139Z,38.00
2018-02-21T12:01:52.283Z,42.67
2018-02-21T12:04:19.395Z,41.67
2018-02-21T12:06:45.690Z,37.53
2018-02-21T12:09:11.981Z,43.00
2018-02-21T12:11:38.324Z,48.40
2018-02-21T12:14:04.941Z,48.10
2018-02-21T12:16:31.554Z,47.33
2018-02-21T12:18:57.950Z,48.58
2018-02-21T12:21:24.973Z,45.58
2018-02-21T12:23:51.267Z,48.40
2018-02-21T12:26:17.670Z,41.17
2018-02-21T12:28:44.779Z,35.97
2018-02-21T12:31:11.395Z,37.47
2018-02-21T12:33:38.642Z,26.50
2018-02-21T12:36:05.809Z,28.75
2018-02-21T12:38:33.131Z,37.10
2018-02-21T12:44:11.313Z,35.00
2018-02-21T12:46:37.815Z,37.72
2018-02-21T12:49:04.238Z,37.97
2018-02-21T12:51:30.781Z,36.03
2018-02-21T12:53:57.098Z,34.15
2018-02-21T12:56:23.384Z,39.38
2018-02-21T12:58:49.680Z,42.20
2018-02-21T13:01:16.719Z,39.85
2018-02-21T13:03:43.006Z,43.22
2018-02-21T13:06:10.141Z,40.47
2018-02-21T13:08:36.731Z,41.78
2018-02-21T13:11:03.492Z,35.75
2018-02-21T13:13:30.099Z,41.67
2018-02-21T13:15:57.236Z,36.20
2018-02-21T13:18:23.580Z,37.30
2018-02-21T13:20:50.687Z,41.05
2018-02-21T13:23:16.994Z,39.97
2018-02-21T13:25:44.042Z,40.28
2018-02-21T13:28:10.333Z,41.72
2018-02-21T13:30:36.862Z,38.83
2018-02-21T13:33:03.420Z,40.40
2018-02-21T13:35:29.953Z,53.38
2018-02-21T13:37:56.339Z,46.30
2018-02-21T13:40:22.930Z,40.60
2018-02-21T13:42:49.364Z,37.47
2018-02-21T13:45:15.678Z,44.85
2018-02-21T13:47:42.019Z,43.28
2018-02-21T13:50:08.270Z,42.60
2018-02-21T13:52:34.671Z,40.80
2018-02-21T13:55:01.079Z,44.83
2018-02-21T13:57:28.141Z,42.95
2018-02-21T13:59:54.530Z,44.22
2018-02-21T14:02:20.989Z,44.83
2018-02-21T14:04:47.322Z,45.17
2018-02-21T14:07:13.618Z,43.05
2018-02-21T14:09:40.282Z,44.03
2018-02-21T14:12:06.709Z,40.75
2018-02-21T14:14:33.949Z,46.40
2018-02-21T14:17:00.729Z,52.85
2018-02-21T14:19:27.785Z,41.15
2018-02-21T14:21:54.182Z,44.88
2018-02-21T14:24:20.509Z,42.50
2018-02-21T14:26:46.841Z,48.95
2018-02-21T14:29:13.306Z,41.17
2018-02-21T14:31:39.612Z,43.97
2018-02-21T14:34:06.154Z,48.03
2018-02-21T14:36:33.672Z,40.08
2018-02-21T14:39:00.397Z,36.83
2018-02-21T14:41:26.843Z,43.20
2018-02-21T14:43:53.328Z,46.17
2018-02-21T14:46:19.650Z,48.60
2018-02-21T14:48:45.976Z,40.53
2018-02-21T14:51:12.338Z,43.95
2018-02-21T14:53:38.879Z,46.15
2018-02-21T14:56:05.394Z,42.58
2018-02-21T14:58:31.950Z,43.20
2018-02-21T15:00:58.310Z,51.08
2018-02-21T15:03:24.800Z,45.70
2018-02-21T15:05:51.510Z,44.92
2018-02-21T15:08:17.854Z,44.83
2018-02-21T15:10:44.156Z,58.72
2018-02-21T15:13:11.211Z,48.42
2018-02-21T15:15:37.558Z,45.55
2018-02-21T15:18:04.713Z,41.83
2018-02-21T15:20:31.267Z,40.72
2018-02-21T15:22:57.754Z,46.80
2018-02-21T15:25:24.344Z,44.22
2018-02-21T15:28:01.379Z,42.78
2018-02-21T15:30:27.583Z,44.15
2018-02-21T15:32:53.711Z,48.55
2018-02-21T15:35:19.881Z,43.08
2018-02-21T15:37:46.727Z,43.92
2018-02-21T15:40:13.877Z,38.65
2018-02-21T15:42:40.086Z,43.05
2018-02-21T15:45:06.195Z,38.75
2018-02-21T15:47:32.453Z,38.17
2018-02-21T15:49:59.510Z,38.70
2018-02-21T15:52:26.509Z,41.35
2018-02-21T15:54:52.876Z,35.67
2018-02-21T15:57:19.035Z,37.30
2018-02-21T15:59:45.196Z,34.92
2018-02-21T16:02:11.302Z,35.88
2018-02-21T16:04:37.396Z,32.45
2018-02-21T16:07:03.624Z,39.28
2018-02-21T16:09:30.586Z,35.15
2018-02-21T16:11:57.682Z,38.60
2018-02-21T16:14:24.020Z,35.30
2018-02-21T16:16:50.163Z,35.55
2018-02-21T16:19:16.377Z,38.13
2018-02-21T16:21:42.547Z,41.42
2018-02-21T16:24:08.713Z,41.30
2018-02-21T16:26:34.873Z,36.92
2018-02-21T16:29:01.836Z,39.53
2018-02-21T16:31:28.802Z,37.25
2018-02-21T16:33:55.815Z,38.92
2018-02-21T16:36:22.007Z,39.97
2018-02-21T16:38:49.285Z,38.20
2018-02-21T16:41:15.485Z,41.22
2018-02-21T16:43:41.644Z,39.05
2018-02-21T16:46:08.520Z,38.00
2018-02-21T16:48:34.691Z,43.53
2018-02-21T16:51:00.863Z,36.92
2018-02-21T16:53:27.012Z,45.15
2018-02-21T16:55:53.122Z,38.53
2018-02-21T16:58:20.794Z,42.85
2018-02-21T17:00:47.683Z,41.30
2018-02-21T17:03:13.774Z,41.28
2018-02-21T17:05:39.927Z,38.97
2018-02-21T17:08:06.780Z,35.20
2018-02-21T17:10:32.898Z,38.35
2018-02-21T17:12:59.119Z,40.53
2018-02-21T17:15:25.198Z,40.30
2018-02-21T17:17:51.423Z,45.47
2018-02-21T17:20:17.686Z,37.58
2018-02-21T17:22:44.564Z,35.78
2018-02-21T17:25:11.120Z,41.80
2018-02-21T17:27:37.267Z,38.63
2018-02-21T17:30:15.414Z,38.47
2018-02-21T17:32:41.570Z,32.65
2018-02-21T17:35:07.683Z,42.60
2018-02-21T17:37:33.843Z,45.00
2018-02-21T17:40:00.060Z,42.95
2018-02-21T17:42:26.134Z,38.38
2018-02-21T17:44:52.256Z,41.67
2018-02-21T17:47:18.385Z,43.78
2018-02-21T17:49:44.549Z,40.30
2018-02-21T17:52:11.422Z,38.50
2018-02-21T17:54:38.360Z,36.00
2018-02-21T17:57:04.469Z,36.50
2018-02-21T17:59:32.705Z,43.30
2018-02-21T18:01:59.631Z,32.40
2018-02-21T18:04:25.704Z,41.05
2018-02-21T18:06:51.880Z,38.35
2018-02-21T18:09:18.012Z,39.95
2018-02-21T18:11:44.112Z,37.20
2018-02-21T18:14:10.995Z,39.08
2018-02-21T18:16:37.186Z,35.35
2018-02-21T18:19:03.336Z,40.50
2018-02-21T18:21:44.356Z,39.67
2018-02-21T18:24:10.467Z,41.15
2018-02-21T18:26:36.619Z,39.33
2018-02-21T18:29:03.533Z,43.05
2018-02-21T18:31:29.886Z,34.90
2018-02-21T18:40:10.166Z,39.40
2018-02-21T18:42:36.287Z,39.00
2018-02-21T18:45:02.421Z,37.40
2018-02-21T18:47:28.799Z,36.15
2018-02-21T18:49:55.201Z,35.08
2018-02-21T18:52:21.570Z,30.37
2018-02-21T18:54:47.714Z,35.78
2018-02-21T18:57:14.259Z,38.13
2018-02-21T18:59:40.387Z,30.52
2018-02-21T19:02:07.243Z,35.20
2018-02-21T19:04:34.479Z,30.58
2018-02-21T19:07:00.673Z,29.23
2018-02-21T19:09:27.016Z,33.88
2018-02-21T19:11:53.369Z,35.25
2018-02-21T19:14:19.655Z,33.38
2018-02-21T19:16:45.772Z,31.27
2018-02-21T19:19:11.894Z,31.75
2018-02-21T19:21:38.028Z,28.40
2018-02-21T19:24:04.146Z,29.05
2018-02-21T19:26:30.684Z,33.17
2018-02-21T19:28:57.243Z,32.88
2018-02-21T19:31:23.682Z,31.77
2018-02-21T19:33:50.753Z,29.87
2018-02-21T19:36:17.068Z,29.58
2018-02-21T19:38:43.186Z,29.87
2018-02-21T19:41:09.314Z,28.27
2018-02-21T19:43:35.508Z,30.88
2018-02-21T19:46:01.963Z,30.37
2018-02-21T19:48:28.222Z,35.70
2018-02-21T19:50:55.421Z,29.77
2018-02-21T19:53:22.428Z,32.90
2018-02-21T19:55:48.685Z,36.72
2018-02-21T19:58:14.874Z,28.60
2018-02-21T20:00:41.016Z,27.83
2018-02-21T20:03:07.117Z,30.52
2018-02-21T20:05:33.273Z,28.00
2018-02-21T20:07:59.513Z,25.42
2018-02-21T20:10:26.054Z,26.77
2018-02-21T20:12:52.179Z,29.95
2018-02-21T20:15:18.835Z,30.40
2018-02-21T20:17:44.920Z,36.08
2018-02-21T20:20:11.032Z,29.85
2018-02-21T20:22:37.198Z,32.92
2018-02-21T20:25:03.295Z,33.17
2018-02-21T20:27:29.643Z,30.25
2018-02-21T20:29:55.878Z,26.87
2018-02-21T20:32:22.740Z,33.22
2018-02-21T20:34:48.890Z,29.48
2018-02-21T20:37:15.015Z,24.85
2018-02-21T20:39:41.870Z,33.75
2018-02-21T20:42:08.765Z,33.80
2018-02-21T20:44:35.616Z,32.80
2018-02-21T20:47:02.134Z,33.55
2018-02-21T20:49:28.685Z,31.50
2018-02-21T20:51:55.841Z,34.85
2018-02-21T20:54:22.071Z,30.83
2018-02-21T20:56:48.677Z,32.90
2018-02-21T20:59:15.751Z,34.05
2018-02-21T21:01:43.002Z,31.58
2018-02-21T21:04:09.193Z,32.90
2018-02-21T21:06:36.064Z,33.22
2018-02-21T21:09:02.260Z,32.28
2018-02-21T21:11:29.657Z,29.87
2018-02-21T21:13:56.260Z,35.20
2018-02-21T21:16:23.453Z,35.42
2018-02-21T21:18:50.059Z,39.88
2018-02-21T21:21:19.348Z,36.88
2018-02-21T21:23:45.793Z,33.85
2018-02-21T21:26:12.084Z,31.50
2018-02-21T21:28:39.071Z,33.13
2018-02-21T21:31:05.259Z,31.83
2018-02-21T21:33:31.913Z,34.35
2018-02-21T21:35:58.333Z,37.25
2018-02-21T21:38:25.026Z,32.45
2018-02-21T21:40:51.657Z,34.45
2018-02-21T21:43:18.045Z,32.35
2018-02-21T21:45:44.805Z,37.20
2018-02-21T21:48:10.916Z,29.35
2018-02-21T21:50:37.078Z,32.20
2018-02-21T21:53:04.263Z,32.75
2018-02-21T21:55:30.806Z,27.13
2018-02-21T21:57:57.585Z,30.60
2018-02-21T22:00:24.785Z,31.35
2018-02-21T22:02:50.941Z,31.45
2018-02-21T22:05:17.059Z,33.35
2018-02-21T22:07:43.926Z,33.78
2018-02-21T22:10:10.787Z,30.98
2018-02-21T22:12:36.899Z,33.85
2018-02-21T22:15:03.069Z,33.42
2018-02-21T22:17:29.651Z,30.05
2018-02-21T22:19:57.047Z,32.75
2018-02-21T22:22:24.603Z,30.95
2018-02-21T22:24:51.687Z,28.95
2018-02-21T22:27:18.552Z,32.08
2018-02-21T22:29:44.980Z,34.55
2018-02-21T22:32:11.255Z,29.45
2018-02-21T22:34:37.426Z,30.92
2018-02-21T22:37:03.615Z,36.78
2018-02-21T22:39:30.922Z,34.78
2018-02-21T22:41:57.699Z,28.52
2018-02-21T22:44:25.216Z,30.35
2018-02-21T22:46:51.376Z,27.42
2018-02-21T22:49:17.722Z,35.10
2018-02-21T22:51:44.670Z,35.00
2018-02-21T22:54:10.782Z,27.70
2018-02-21T22:56:36.868Z,35.17
2018-02-21T22:59:02.966Z,32.08
2018-02-21T23:01:29.295Z,30.73
2018-02-21T23:03:55.650Z,31.67
2018-02-21T23:06:22.594Z,31.80
2018-02-21T23:08:48.703Z,29.50
2018-02-21T23:11:15.044Z,32.95
2018-02-21T23:13:42.007Z,39.80
2018-02-21T23:16:08.107Z,24.75
2018-02-21T23:18:34.424Z,35.08
2018-02-21T23:21:00.876Z,35.60
2018-02-21T23:23:27.212Z,32.75
2018-02-21T23:25:53.735Z,33.33
2018-02-21T23:28:19.919Z,28.85
2018-02-21T23:30:46.158Z,33.15
2018-02-21T23:33:13.085Z,33.03
2018-02-21T23:35:39.167Z,35.75
2018-02-21T23:38:05.291Z,33.15
2018-02-21T23:40:31.640Z,34.15
2018-02-21T23:42:58.112Z,40.05
2018-02-21T23:45:24.702Z,36.90
2018-02-21T23:47:51.059Z,33.75
2018-02-21T23:50:17.486Z,33.22
2018-02-21T23:52:43.654Z,34.53
2018-02-21T23:55:09.758Z,36.38
2018-02-21T23:57:35.842Z,32.17
